createdAt,value
2018-03-28T00:00:11.452Z,41.00
2018-03-28T00:01:49.006Z,39.25
2018-03-28T00:03:27.530Z,37.50
2018-03-28T00:05:07.856Z,38.75
2018-03-28T00:06:46.108Z,38.00
2018-03-28T00:08:23.266Z,41.25
2018-03-28T00:10:00.850Z,39.75
2018-03-28T00:11:38.511Z,42.75
2018-03-28T00:13:16.412Z,39.50
2018-03-28T00:14:53.930Z,39.25
2018-03-28T00:16:32.406Z,43.00
2018-03-28T00:18:10.637Z,39.75
2018-03-28T00:21:35.669Z,39.00
2018-03-28T00:23:13.144Z,42.50
2018-03-28T00:26:37.901Z,42.50
2018-03-28T00:28:15.573Z,44.50
2018-03-28T00:29:53.147Z,38.50
2018-03-28T00:31:32.937Z,40.75
2018-03-28T00:33:10.583Z,39.50
2018-03-28T00:34:48.255Z,42.00
2018-03-28T00:36:27.339Z,42.25
2018-03-28T00:38:04.803Z,42.25
2018-03-28T00:39:43.221Z,42.25
2018-03-28T00:41:20.803Z,45.50
2018-03-28T00:42:58.722Z,45.50
2018-03-28T00:44:36.621Z,46.00
2018-03-28T00:46:14.624Z,45.75
2018-03-28T00:47:52.371Z,45.50
2018-03-28T00:49:30.039Z,42.00
2018-03-28T00:51:20.794Z,43.75
2018-03-28T00:52:58.401Z,40.75
2018-03-28T00:54:36.952Z,45.25
2018-03-28T00:56:15.015Z,44.75
2018-03-28T00:57:53.376Z,46.25
2018-03-28T00:59:32.023Z,46.00
2018-03-28T01:01:10.079Z,42.50
2018-03-28T01:02:48.375Z,44.25
2018-03-28T01:04:27.165Z,50.00
2018-03-28T01:06:04.968Z,46.00
2018-03-28T01:11:15.017Z,40.75
2018-03-28T01:12:52.975Z,44.25
2018-03-28T01:14:30.674Z,45.50
2018-03-28T01:16:08.488Z,47.75
2018-03-28T01:17:46.354Z,49.00
2018-03-28T01:19:24.182Z,42.50
2018-03-28T01:21:03.192Z,47.00
2018-03-28T01:22:41.476Z,45.25
2018-03-28T01:24:19.223Z,43.75
2018-03-28T01:25:56.916Z,45.00
2018-03-28T01:27:35.990Z,46.00
2018-03-28T01:29:13.570Z,51.00
2018-03-28T01:30:53.955Z,44.25
2018-03-28T01:32:32.284Z,44.00
2018-03-28T01:34:10.774Z,46.75
2018-03-28T01:35:49.124Z,43.00
2018-03-28T01:37:26.704Z,43.75
2018-03-28T01:39:04.429Z,42.75
2018-03-28T01:40:42.394Z,41.50
2018-03-28T01:42:20.862Z,47.75
2018-03-28T01:43:58.550Z,42.25
2018-03-28T01:45:36.638Z,42.00
2018-03-28T01:47:14.824Z,46.75
2018-03-28T01:48:52.798Z,42.00
2018-03-28T01:50:30.562Z,44.50
2018-03-28T01:52:09.087Z,46.00
2018-03-28T01:53:47.075Z,42.25
2018-03-28T01:55:25.740Z,44.00
2018-03-28T01:57:03.275Z,42.00
2018-03-28T01:58:41.291Z,50.00
2018-03-28T02:00:20.987Z,46.75
2018-03-28T02:01:58.652Z,52.00
2018-03-28T02:03:36.525Z,47.00
2018-03-28T02:05:13.984Z,47.25
2018-03-28T02:06:51.930Z,44.25
2018-03-28T02:08:29.913Z,48.00
2018-03-28T02:10:07.773Z,48.00
2018-03-28T02:11:46.529Z,45.00
2018-03-28T02:13:24.814Z,48.00
2018-03-28T02:15:02.787Z,49.00
2018-03-28T02:16:41.008Z,45.75
2018-03-28T02:18:18.335Z,40.75
2018-03-28T02:19:57.715Z,44.25
2018-03-28T02:21:35.222Z,40.50
2018-03-28T02:23:13.519Z,43.25
2018-03-28T02:24:50.730Z,47.50
2018-03-28T02:26:28.583Z,39.25
2018-03-28T02:28:07.308Z,38.75
2018-03-28T02:29:44.836Z,45.00
2018-03-28T02:31:22.756Z,48.75
2018-03-28T02:33:00.519Z,49.25
2018-03-28T02:34:41.168Z,48.50
2018-03-28T02:36:19.209Z,46.50
2018-03-28T02:37:56.537Z,45.50
2018-03-28T02:39:34.421Z,45.50
2018-03-28T02:41:11.469Z,44.25
2018-03-28T02:42:49.811Z,45.75
2018-03-28T02:44:29.316Z,46.00
2018-03-28T02:46:07.607Z,44.25
2018-03-28T02:47:45.355Z,46.00
2018-03-28T02:49:23.316Z,43.75
2018-03-28T02:51:00.686Z,47.00
2018-03-28T02:52:38.884Z,43.75
2018-03-28T02:54:16.578Z,43.75
2018-03-28T02:55:54.207Z,40.00
2018-03-28T02:57:32.082Z,45.50
2018-03-28T02:59:10.355Z,44.00
2018-03-28T03:00:48.155Z,40.75
2018-03-28T03:02:26.645Z,42.75
2018-03-28T03:04:04.313Z,37.00
2018-03-28T03:05:41.965Z,43.25
2018-03-28T03:07:19.854Z,43.00
2018-03-28T03:08:57.266Z,43.50
2018-03-28T03:10:35.225Z,43.00
2018-03-28T03:12:12.232Z,42.50
2018-03-28T03:13:50.934Z,40.75
2018-03-28T03:15:30.084Z,42.75
2018-03-28T03:17:07.713Z,43.25
2018-03-28T03:18:44.806Z,39.75
2018-03-28T03:20:22.571Z,41.50
2018-03-28T03:21:59.577Z,40.75
2018-03-28T03:23:37.104Z,42.00
2018-03-28T03:25:14.960Z,40.50
2018-03-28T03:26:52.549Z,40.00
2018-03-28T03:28:31.146Z,42.25
2018-03-28T03:30:09.480Z,43.00
2018-03-28T03:31:47.563Z,43.50
2018-03-28T03:33:25.409Z,40.00
2018-03-28T03:35:03.222Z,44.00
2018-03-28T03:36:41.993Z,42.25
2018-03-28T03:38:19.148Z,37.00
2018-03-28T03:39:56.472Z,37.00
2018-03-28T03:41:34.349Z,40.00
2018-03-28T03:43:12.565Z,38.25
2018-03-28T03:44:49.704Z,36.75
2018-03-28T03:46:27.371Z,41.75
2018-03-28T03:48:04.587Z,39.50
2018-03-28T03:49:44.166Z,37.50
2018-03-28T03:51:22.015Z,38.50
2018-03-28T03:52:59.501Z,38.25
2018-03-28T03:54:36.189Z,34.00
2018-03-28T03:56:13.585Z,35.00
2018-03-28T03:57:50.907Z,36.00
2018-03-28T03:59:27.917Z,36.25
2018-03-28T04:01:05.327Z,38.75
2018-03-28T04:02:43.055Z,39.50
2018-03-28T04:04:20.524Z,39.25
2018-03-28T04:05:57.747Z,44.75
2018-03-28T04:07:35.106Z,38.75
2018-03-28T04:09:12.645Z,40.00
2018-03-28T04:10:49.706Z,41.75
2018-03-28T04:12:26.782Z,37.25
2018-03-28T04:14:04.895Z,37.75
2018-03-28T04:15:44.505Z,29.25
2018-03-28T04:17:21.816Z,37.50
2018-03-28T04:18:59.214Z,38.50
2018-03-28T04:20:36.762Z,35.75
2018-03-28T04:22:14.867Z,37.00
2018-03-28T04:23:52.576Z,35.25
2018-03-28T04:25:29.663Z,37.00
2018-03-28T04:27:08.075Z,37.50
2018-03-28T04:28:45.723Z,35.50
2018-03-28T04:30:24.337Z,29.75
2018-03-28T04:32:01.123Z,31.75
2018-03-28T04:33:38.411Z,31.00
2018-03-28T04:35:15.820Z,34.75
2018-03-28T04:36:53.769Z,31.75
2018-03-28T04:38:32.359Z,29.25
2018-03-28T04:40:09.633Z,30.00
2018-03-28T04:41:47.147Z,26.50
2018-03-28T04:43:24.525Z,30.50
2018-03-28T04:45:02.250Z,34.00
2018-03-28T04:46:40.385Z,38.50
2018-03-28T04:48:17.927Z,36.75
2018-03-28T04:49:55.394Z,36.75
2018-03-28T04:51:32.682Z,37.75
2018-03-28T04:53:09.785Z,33.75
2018-03-28T04:54:48.623Z,36.25
2018-03-28T04:56:25.648Z,25.25
2018-03-28T04:58:02.831Z,36.00
2018-03-28T04:59:40.016Z,27.00
2018-03-28T05:01:17.509Z,31.75
2018-03-28T05:02:55.111Z,26.25
2018-03-28T05:04:32.428Z,31.75
2018-03-28T05:06:09.648Z,36.00
2018-03-28T05:07:47.882Z,32.00
2018-03-28T05:09:26.720Z,28.75
2018-03-28T05:11:04.107Z,32.00
2018-03-28T05:12:42.646Z,31.25
2018-03-28T05:14:22.483Z,28.75
2018-03-28T05:16:01.649Z,28.00
2018-03-28T05:17:39.910Z,32.50
2018-03-28T05:19:17.232Z,32.75
2018-03-28T05:20:54.848Z,33.00
2018-03-28T05:22:33.016Z,21.75
2018-03-28T05:24:10.908Z,39.50
2018-03-28T05:25:48.358Z,32.25
2018-03-28T05:27:26.144Z,30.50
2018-03-28T05:29:03.313Z,33.25
2018-03-28T05:30:40.959Z,30.00
2018-03-28T05:32:18.622Z,26.50
2018-03-28T05:33:57.613Z,31.00
2018-03-28T05:35:35.076Z,28.50
2018-03-28T05:37:13.169Z,32.50
2018-03-28T05:38:51.252Z,26.50
2018-03-28T05:40:28.816Z,30.75
2018-03-28T05:42:07.142Z,32.50
2018-03-28T05:43:44.977Z,30.75
2018-03-28T05:45:27.279Z,34.50
2018-03-28T05:47:05.035Z,33.00
2018-03-28T05:48:43.255Z,36.25
2018-03-28T05:50:21.620Z,31.00
2018-03-28T05:51:59.278Z,29.25
2018-03-28T05:53:37.776Z,30.75
2018-03-28T05:55:16.140Z,37.75
2018-03-28T05:56:54.027Z,36.75
2018-03-28T05:58:32.521Z,38.00
2018-03-28T06:00:10.759Z,38.50
2018-03-28T06:01:48.612Z,39.25
2018-03-28T06:03:26.229Z,41.25
2018-03-28T06:05:04.233Z,37.25
2018-03-28T06:06:42.335Z,41.50
2018-03-28T06:08:20.126Z,42.25
2018-03-28T06:11:33.512Z,40.50
2018-03-28T06:13:11.412Z,44.00
2018-03-28T06:14:49.692Z,41.00
2018-03-28T06:16:27.661Z,42.25
2018-03-28T06:18:05.820Z,42.75
2018-03-28T06:19:45.095Z,39.75
2018-03-28T06:21:22.883Z,43.25
2018-03-28T06:23:00.410Z,39.00
2018-03-28T06:24:38.193Z,40.50
2018-03-28T06:26:17.076Z,38.75
2018-03-28T06:27:55.624Z,38.25
2018-03-28T06:29:33.440Z,40.75
2018-03-28T06:31:12.171Z,40.50
2018-03-28T06:32:50.303Z,35.00
2018-03-28T06:34:27.876Z,41.00
2018-03-28T06:37:39.701Z,42.50
2018-03-28T06:39:18.315Z,38.50
2018-03-28T06:40:55.858Z,40.25
2018-03-28T06:42:33.594Z,42.75
2018-03-28T06:44:11.321Z,42.25
2018-03-28T06:45:50.296Z,40.50
2018-03-28T06:47:27.940Z,42.75
2018-03-28T06:49:06.192Z,40.50
2018-03-28T06:50:43.965Z,40.75
2018-03-28T06:52:21.834Z,73.50
2018-03-28T06:54:00.403Z,43.50
2018-03-28T06:55:39.043Z,41.25
2018-03-28T06:57:16.999Z,39.50
2018-03-28T06:58:55.513Z,38.75
2018-03-28T07:00:33.226Z,38.50
2018-03-28T07:02:10.815Z,45.25
2018-03-28T07:03:49.182Z,38.50
2018-03-28T07:05:27.523Z,47.00
2018-03-28T07:07:05.345Z,38.25
2018-03-28T07:08:43.531Z,41.00
2018-03-28T07:10:20.899Z,38.00
2018-03-28T07:11:59.058Z,42.50
2018-03-28T07:13:36.371Z,38.75
2018-03-28T07:15:15.273Z,40.00
2018-03-28T07:16:53.650Z,42.00
2018-03-28T07:18:31.125Z,44.00
2018-03-28T07:20:08.704Z,38.50
2018-03-28T07:21:46.248Z,41.00
2018-03-28T07:23:24.326Z,41.50
2018-03-28T07:25:01.850Z,42.00
2018-03-28T07:26:39.582Z,40.25
2018-03-28T07:28:17.610Z,39.50
2018-03-28T07:29:55.312Z,40.75
2018-03-28T07:31:33.192Z,37.25
2018-03-28T07:33:10.557Z,38.50
2018-03-28T07:34:47.975Z,42.00
2018-03-28T07:36:25.900Z,40.50
2018-03-28T07:38:03.939Z,42.00
2018-03-28T07:39:42.100Z,40.50
2018-03-28T07:41:19.385Z,44.50
2018-03-28T07:42:57.118Z,41.75
2018-03-28T07:44:34.580Z,39.75
2018-03-28T07:46:12.162Z,37.50
2018-03-28T07:47:49.586Z,43.75
2018-03-28T07:49:28.472Z,53.50
2018-03-28T07:51:06.517Z,47.50
2018-03-28T07:52:44.156Z,45.50
2018-03-28T07:54:21.250Z,47.00
2018-03-28T07:55:59.501Z,49.00
2018-03-28T07:57:36.950Z,44.75
2018-03-28T07:59:14.393Z,44.25
2018-03-28T08:00:52.456Z,40.50
2018-03-28T08:02:29.965Z,39.00
2018-03-28T08:04:07.011Z,41.50
2018-03-28T08:05:44.282Z,41.50
2018-03-28T08:07:21.800Z,42.75
2018-03-28T08:08:59.373Z,42.00
2018-03-28T08:10:36.909Z,47.75
2018-03-28T08:12:13.888Z,40.50
2018-03-28T08:13:51.364Z,40.75
2018-03-28T08:15:29.847Z,44.25
2018-03-28T08:17:07.067Z,45.75
2018-03-28T08:18:44.101Z,47.25
2018-03-28T08:20:22.377Z,45.00
2018-03-28T08:21:59.579Z,43.75
2018-03-28T08:23:37.526Z,39.50
2018-03-28T08:25:14.443Z,47.25
2018-03-28T08:26:52.015Z,45.00
2018-03-28T08:28:29.368Z,42.25
2018-03-28T08:30:07.765Z,47.00
2018-03-28T08:31:45.489Z,42.50
2018-03-28T08:33:23.714Z,47.00
2018-03-28T08:35:01.356Z,44.00
2018-03-28T08:36:39.078Z,43.00
2018-03-28T08:38:17.075Z,42.75
2018-03-28T08:39:54.673Z,45.75
2018-03-28T08:41:32.733Z,42.00
2018-03-28T08:43:10.028Z,41.00
2018-03-28T08:44:47.888Z,42.50
2018-03-28T08:46:25.747Z,40.50
2018-03-28T08:48:04.062Z,44.25
2018-03-28T08:49:41.373Z,42.75
2018-03-28T08:51:18.455Z,41.25
2018-03-28T08:52:56.460Z,41.25
2018-03-28T08:54:33.604Z,42.00
2018-03-28T08:56:10.932Z,45.00
2018-03-28T08:57:47.937Z,41.50
2018-03-28T08:59:25.506Z,45.25
2018-03-28T09:01:02.952Z,43.50
2018-03-28T09:02:40.105Z,46.25
2018-03-28T09:04:17.414Z,45.50
2018-03-28T09:05:55.887Z,42.25
2018-03-28T09:07:33.114Z,42.75
2018-03-28T09:09:10.738Z,42.00
2018-03-28T09:10:47.798Z,40.75
2018-03-28T09:12:25.583Z,43.75
2018-03-28T09:14:02.804Z,42.50
2018-03-28T09:15:41.058Z,44.25
2018-03-28T09:17:18.143Z,44.25
2018-03-28T09:18:56.095Z,43.75
2018-03-28T09:20:33.150Z,42.00
2018-03-28T09:22:10.526Z,45.00
2018-03-28T09:23:47.919Z,41.75
2018-03-28T09:25:26.073Z,42.25
2018-03-28T09:27:04.021Z,44.50
2018-03-28T09:28:41.188Z,38.25
2018-03-28T09:30:21.191Z,42.25
2018-03-28T09:31:59.027Z,43.50
2018-03-28T09:33:36.267Z,41.50
2018-03-28T09:35:13.558Z,49.00
2018-03-28T09:36:50.629Z,43.25
2018-03-28T09:38:28.090Z,45.00
2018-03-28T09:40:06.226Z,45.75
2018-03-28T09:41:43.912Z,40.75
2018-03-28T09:43:21.248Z,42.75
2018-03-28T09:44:59.672Z,46.75
2018-03-28T09:46:36.912Z,42.50
2018-03-28T09:48:14.074Z,45.25
2018-03-28T09:49:51.200Z,45.75
2018-03-28T09:51:28.783Z,43.00
2018-03-28T09:53:05.867Z,41.75
2018-03-28T09:54:48.212Z,46.00
2018-03-28T09:56:25.557Z,46.25
2018-03-28T09:58:03.402Z,39.50
2018-03-28T09:59:41.707Z,41.00
2018-03-28T10:01:23.800Z,43.25
2018-03-28T10:03:05.413Z,39.75
2018-03-28T10:04:50.301Z,40.75
2018-03-28T10:08:12.813Z,39.50
2018-03-28T10:09:50.007Z,41.00
2018-03-28T10:11:28.546Z,38.75
2018-03-28T10:13:07.768Z,39.00
2018-03-28T10:14:45.124Z,39.00
2018-03-28T10:16:22.481Z,38.25
2018-03-28T10:18:00.809Z,41.50
2018-03-28T10:19:38.087Z,40.00
2018-03-28T10:21:16.076Z,41.00
2018-03-28T10:22:54.442Z,42.00
2018-03-28T10:24:32.006Z,42.50
2018-03-28T10:26:09.264Z,38.00
2018-03-28T10:27:46.366Z,41.00
2018-03-28T10:29:23.977Z,42.25
2018-03-28T10:31:01.879Z,43.25
2018-03-28T10:34:27.208Z,41.00
2018-03-28T10:36:04.799Z,45.75
2018-03-28T10:37:43.170Z,41.25
2018-03-28T10:39:21.116Z,42.00
2018-03-28T10:40:58.130Z,42.25
2018-03-28T10:42:35.210Z,42.00
2018-03-28T10:44:12.900Z,43.00
2018-03-28T10:45:50.782Z,41.50
2018-03-28T10:47:29.674Z,38.00
2018-03-28T10:50:56.554Z,42.25
2018-03-28T10:52:33.583Z,45.50
2018-03-28T10:54:10.623Z,38.25
2018-03-28T10:55:47.770Z,43.00
2018-03-28T10:57:25.231Z,39.75
2018-03-28T10:59:02.447Z,41.50
2018-03-28T11:00:39.805Z,46.00
2018-03-28T11:02:16.936Z,42.00
2018-03-28T11:03:53.860Z,41.25
2018-03-28T11:05:31.099Z,38.75
2018-03-28T11:07:08.236Z,42.75
2018-03-28T11:08:46.161Z,39.00
2018-03-28T11:10:24.590Z,34.25
2018-03-28T11:12:01.593Z,38.75
2018-03-28T11:13:38.603Z,42.00
2018-03-28T11:15:17.986Z,40.50
2018-03-28T11:16:55.586Z,38.75
2018-03-28T11:18:32.866Z,37.25
2018-03-28T11:20:09.981Z,39.00
2018-03-28T11:21:47.676Z,40.25
2018-03-28T11:23:25.938Z,37.50
2018-03-28T11:25:04.084Z,38.00
2018-03-28T11:26:41.317Z,36.50
2018-03-28T11:28:18.518Z,39.00
2018-03-28T11:29:55.556Z,37.50
2018-03-28T11:31:32.646Z,37.50
2018-03-28T11:33:09.755Z,38.00
2018-03-28T11:34:48.855Z,39.75
2018-03-28T11:36:26.039Z,38.00
2018-03-28T11:38:03.276Z,38.75
2018-03-28T11:39:41.208Z,42.50
2018-03-28T11:41:18.661Z,38.25
2018-03-28T11:42:56.662Z,38.00
2018-03-28T11:44:35.887Z,38.75
2018-03-28T11:46:13.597Z,38.50
2018-03-28T11:47:51.590Z,38.75
2018-03-28T11:49:30.620Z,37.25
2018-03-28T11:51:08.117Z,39.75
2018-03-28T11:52:45.138Z,41.75
2018-03-28T11:54:21.966Z,39.25
2018-03-28T11:55:59.200Z,35.00
2018-03-28T11:57:36.451Z,38.00
2018-03-28T11:59:13.386Z,34.75
2018-03-28T12:00:51.045Z,32.00
2018-03-28T12:02:28.633Z,34.25
2018-03-28T12:04:05.935Z,37.75
2018-03-28T12:05:43.034Z,38.00
2018-03-28T12:07:21.940Z,34.25
2018-03-28T12:08:59.537Z,35.00
2018-03-28T12:10:36.714Z,32.00
2018-03-28T12:12:13.911Z,36.75
2018-03-28T12:13:51.666Z,38.00
2018-03-28T12:15:30.687Z,35.00
2018-03-28T12:17:07.884Z,29.50
2018-03-28T12:18:45.107Z,30.75
2018-03-28T12:20:22.602Z,35.25
2018-03-28T12:22:00.487Z,33.00
2018-03-28T12:25:23.256Z,34.25
2018-03-28T12:27:01.133Z,34.50
2018-03-28T12:28:39.976Z,32.00
2018-03-28T12:30:19.081Z,33.75
2018-03-28T12:31:56.918Z,31.75
2018-03-28T12:33:35.036Z,29.50
2018-03-28T12:35:14.636Z,31.50
2018-03-28T12:36:52.504Z,30.00
2018-03-28T12:38:29.782Z,28.00
2018-03-28T12:40:08.510Z,33.25
2018-03-28T12:41:46.535Z,26.75
2018-03-28T12:43:24.103Z,28.00
2018-03-28T12:45:01.561Z,28.25
2018-03-28T12:46:40.294Z,28.50
2018-03-28T12:48:17.527Z,29.25
2018-03-28T12:49:55.403Z,31.75
2018-03-28T12:51:33.265Z,27.75
2018-03-28T12:53:11.152Z,33.75
2018-03-28T12:54:48.198Z,31.00
2018-03-28T12:56:25.463Z,28.50
2018-03-28T12:58:02.475Z,26.50
2018-03-28T12:59:39.650Z,27.75
2018-03-28T13:01:16.922Z,29.75
2018-03-28T13:02:53.824Z,28.50
2018-03-28T13:04:30.911Z,27.75
2018-03-28T13:06:08.376Z,32.50
2018-03-28T13:07:46.033Z,28.25
2018-03-28T13:09:23.047Z,27.75
2018-03-28T13:11:02.161Z,28.75
2018-03-28T13:12:39.994Z,26.00
2018-03-28T13:14:19.671Z,18.00
2018-03-28T13:15:59.741Z,23.75
2018-03-28T13:17:36.910Z,20.25
2018-03-28T13:19:14.661Z,22.25
2018-03-28T13:20:51.745Z,20.00
2018-03-28T13:22:28.591Z,24.25
2018-03-28T13:24:05.774Z,20.75
2018-03-28T13:25:43.286Z,22.50
2018-03-28T13:27:21.107Z,22.00
2018-03-28T13:28:58.280Z,21.75
2018-03-28T13:30:35.289Z,25.75
2018-03-28T13:32:13.589Z,19.50
2018-03-28T13:33:51.571Z,22.00
2018-03-28T13:35:29.571Z,18.75
2018-03-28T13:37:07.249Z,15.50
2018-03-28T13:38:45.671Z,19.75
2018-03-28T13:40:22.858Z,16.50
2018-03-28T13:42:00.002Z,18.75
2018-03-28T13:43:37.562Z,18.25
2018-03-28T13:45:17.657Z,13.25
2018-03-28T13:46:55.045Z,13.75
2018-03-28T13:48:32.963Z,15.00
2018-03-28T13:50:13.428Z,11.25
2018-03-28T13:51:51.255Z,13.25
2018-03-28T13:53:29.265Z,12.50
2018-03-28T13:55:06.599Z,11.75
2018-03-28T13:56:43.707Z,11.00
2018-03-28T13:58:21.962Z,12.50
2018-03-28T13:59:59.161Z,17.25
2018-03-28T14:01:36.758Z,13.25
2018-03-28T14:03:15.089Z,11.50
2018-03-28T14:04:55.702Z,14.50
2018-03-28T14:06:32.957Z,14.50
2018-03-28T14:08:10.919Z,15.00
2018-03-28T14:09:48.057Z,13.50
2018-03-28T14:11:26.806Z,16.75
2018-03-28T14:13:03.730Z,14.25
2018-03-28T14:14:41.359Z,15.75
2018-03-28T14:16:19.170Z,16.75
2018-03-28T14:17:56.136Z,15.75
2018-03-28T14:19:34.100Z,59.00
2018-03-28T14:21:10.975Z,16.25
2018-03-28T14:22:48.580Z,17.00
2018-03-28T14:24:26.269Z,18.25
2018-03-28T14:26:04.135Z,16.25
2018-03-28T14:27:41.122Z,13.50
2018-03-28T14:29:19.431Z,18.75
2018-03-28T14:30:57.363Z,20.50
2018-03-28T14:32:34.477Z,16.25
2018-03-28T14:34:11.517Z,15.75
2018-03-28T14:35:48.922Z,15.00
2018-03-28T14:37:26.850Z,18.00
2018-03-28T14:39:05.094Z,15.25
2018-03-28T14:40:46.225Z,14.75
2018-03-28T14:42:25.022Z,9.25
2018-03-28T14:44:06.562Z,16.25
2018-03-28T14:45:45.275Z,8.00
2018-03-28T14:47:23.856Z,13.00
2018-03-28T14:49:02.280Z,6.00
2018-03-28T14:50:39.239Z,17.25
2018-03-28T14:52:16.740Z,9.00
2018-03-28T14:53:54.169Z,11.75
2018-03-28T14:55:33.041Z,10.50
2018-03-28T14:57:13.068Z,4.75
2018-03-28T14:58:50.602Z,14.50
2018-03-28T15:00:29.503Z,8.25
2018-03-28T15:02:09.832Z,15.00
2018-03-28T15:03:47.033Z,19.50
2018-03-28T15:05:24.211Z,9.25
2018-03-28T15:07:01.893Z,18.75
2018-03-28T15:08:40.461Z,20.00
2018-03-28T15:10:24.252Z,19.00
2018-03-28T15:12:02.006Z,22.00
2018-03-28T15:13:39.003Z,23.00
2018-03-28T15:15:18.200Z,23.50
2018-03-28T15:16:56.541Z,20.50
2018-03-28T15:18:35.432Z,11.25
2018-03-28T15:20:12.679Z,15.00
2018-03-28T15:21:49.683Z,16.25
2018-03-28T15:23:27.412Z,17.50
2018-03-28T15:25:05.307Z,11.00
2018-03-28T15:26:42.524Z,13.50
2018-03-28T15:28:19.447Z,16.50
2018-03-28T15:30:00.287Z,20.75
2018-03-28T15:31:37.727Z,16.50
2018-03-28T15:33:14.849Z,16.50
2018-03-28T15:34:51.824Z,10.25
2018-03-28T15:36:29.588Z,14.50
2018-03-28T15:38:06.819Z,18.75
2018-03-28T15:39:43.845Z,21.75
2018-03-28T15:41:20.838Z,20.25
2018-03-28T15:42:58.343Z,7.75
2018-03-28T15:44:35.361Z,26.50
2018-03-28T15:46:12.805Z,19.50
2018-03-28T15:47:49.715Z,24.50
2018-03-28T15:49:28.172Z,25.25
2018-03-28T15:51:05.312Z,24.50
2018-03-28T15:52:43.879Z,19.50
2018-03-28T15:54:21.711Z,22.00
2018-03-28T15:55:58.720Z,25.25
2018-03-28T15:57:36.368Z,21.50
2018-03-28T15:59:13.487Z,19.50
2018-03-28T16:00:51.064Z,29.50
2018-03-28T16:02:28.694Z,25.25
2018-03-28T16:04:05.608Z,24.00
2018-03-28T16:05:42.729Z,33.00
2018-03-28T16:07:19.641Z,35.00
2018-03-28T16:08:59.366Z,47.75
2018-03-28T16:10:36.855Z,24.25
2018-03-28T16:12:14.662Z,29.75
2018-03-28T16:13:51.777Z,24.00
2018-03-28T16:15:32.115Z,21.50
2018-03-28T16:17:09.082Z,21.00
2018-03-28T16:18:46.220Z,23.25
2018-03-28T16:20:24.260Z,17.00
2018-03-28T16:22:01.780Z,18.50
2018-03-28T16:23:39.665Z,21.75
2018-03-28T16:25:16.806Z,20.75
2018-03-28T16:26:54.031Z,24.25
2018-03-28T16:28:33.105Z,20.25
2018-03-28T16:30:10.852Z,21.75
2018-03-28T16:33:27.579Z,20.50
2018-03-28T16:35:04.827Z,21.50
2018-03-28T16:36:43.648Z,25.00
2018-03-28T16:38:21.574Z,22.75
2018-03-28T16:39:58.912Z,24.75
2018-03-28T16:41:38.140Z,21.25
2018-03-28T16:43:17.234Z,22.00
2018-03-28T16:44:55.278Z,17.50
2018-03-28T16:46:33.383Z,24.25
2018-03-28T16:48:11.976Z,23.25
2018-03-28T16:49:50.862Z,20.75
2018-03-28T16:51:28.179Z,22.00
2018-03-28T16:53:05.454Z,23.50
2018-03-28T16:54:43.294Z,20.25
2018-03-28T16:56:20.660Z,21.00
2018-03-28T16:58:01.275Z,17.75
2018-03-28T16:59:38.585Z,17.00
2018-03-28T17:01:20.326Z,19.50
2018-03-28T17:02:57.613Z,20.75
2018-03-28T17:04:34.921Z,17.50
2018-03-28T17:06:12.752Z,36.25
2018-03-28T17:07:50.013Z,44.75
2018-03-28T17:09:27.344Z,23.25
2018-03-28T17:11:04.454Z,21.50
2018-03-28T17:12:45.744Z,30.00
2018-03-28T17:14:23.054Z,33.75
2018-03-28T17:16:00.927Z,29.75
2018-03-28T17:17:38.885Z,32.25
2018-03-28T17:19:17.486Z,26.75
2018-03-28T17:20:54.931Z,28.25
2018-03-28T17:22:33.064Z,30.25
2018-03-28T17:24:10.283Z,32.50
2018-03-28T17:25:48.973Z,29.00
2018-03-28T17:27:26.423Z,23.50
2018-03-28T17:29:03.862Z,20.00
2018-03-28T17:30:42.535Z,22.00
2018-03-28T17:32:21.571Z,20.75
2018-03-28T17:33:59.176Z,27.25
2018-03-28T17:35:37.311Z,24.25
2018-03-28T17:37:14.782Z,25.00
2018-03-28T17:38:52.590Z,24.00
2018-03-28T17:42:15.869Z,21.00
2018-03-28T17:43:52.957Z,21.75
2018-03-28T17:45:31.098Z,18.75
2018-03-28T17:47:09.353Z,18.25
2018-03-28T17:48:46.835Z,21.75
2018-03-28T17:50:24.078Z,18.75
2018-03-28T17:52:01.832Z,19.25
2018-03-28T17:53:42.311Z,18.75
2018-03-28T17:55:20.375Z,16.50
2018-03-28T17:56:58.663Z,17.25
2018-03-28T17:58:36.254Z,18.00
2018-03-28T18:00:14.446Z,15.75
2018-03-28T18:01:52.057Z,18.25
2018-03-28T18:03:28.973Z,14.75
2018-03-28T18:05:07.349Z,18.25
2018-03-28T18:06:44.472Z,13.00
2018-03-28T18:08:22.212Z,14.75
2018-03-28T18:09:59.254Z,13.00
2018-03-28T18:11:36.496Z,14.50
2018-03-28T18:13:13.715Z,9.00
2018-03-28T18:14:51.697Z,9.75
2018-03-28T18:16:29.173Z,12.00
2018-03-28T18:18:06.809Z,11.25
2018-03-28T18:19:44.766Z,7.00
2018-03-28T18:21:22.902Z,11.75
2018-03-28T18:22:59.965Z,8.00
2018-03-28T18:24:37.642Z,6.00
2018-03-28T18:26:14.773Z,8.00
2018-03-28T18:27:51.730Z,6.50
2018-03-28T18:29:29.172Z,7.75
2018-03-28T18:31:06.668Z,9.25
2018-03-28T18:32:43.923Z,9.50
2018-03-28T18:34:21.348Z,11.00
2018-03-28T18:35:59.418Z,11.00
2018-03-28T18:37:37.750Z,11.00
2018-03-28T18:39:15.601Z,15.00
2018-03-28T18:40:53.488Z,14.00
2018-03-28T18:42:30.578Z,18.25
2018-03-28T18:44:08.385Z,17.00
2018-03-28T18:45:45.713Z,18.75
2018-03-28T18:47:23.076Z,16.75
2018-03-28T18:49:01.079Z,14.50
2018-03-28T18:50:39.475Z,11.75
2018-03-28T18:52:21.203Z,8.75
2018-03-28T18:53:58.722Z,12.50
2018-03-28T18:55:36.848Z,10.25
2018-03-28T18:57:17.929Z,14.00
2018-03-28T18:58:59.252Z,13.00
2018-03-28T19:00:39.176Z,11.75
2018-03-28T19:02:18.663Z,10.00
2018-03-28T19:03:57.042Z,11.75
2018-03-28T19:05:34.362Z,12.00
2018-03-28T19:07:13.289Z,14.00
2018-03-28T19:08:53.890Z,14.50
2018-03-28T19:10:34.518Z,11.50
2018-03-28T19:12:13.977Z,13.75
2018-03-28T19:13:51.288Z,9.50
2018-03-28T19:15:32.435Z,12.75
2018-03-28T19:17:09.865Z,15.25
2018-03-28T19:18:48.606Z,12.00
2018-03-28T19:20:26.235Z,11.00
2018-03-28T19:22:04.729Z,15.00
2018-03-28T19:23:43.015Z,21.25
2018-03-28T19:25:22.504Z,18.00
2018-03-28T19:27:00.073Z,16.25
2018-03-28T19:28:37.300Z,18.75
2018-03-28T19:30:17.038Z,18.00
2018-03-28T19:31:54.552Z,20.50
2018-03-28T19:33:32.756Z,18.00
2018-03-28T19:35:10.827Z,24.25
2018-03-28T19:37:02.782Z,23.00
2018-03-28T19:38:42.073Z,23.75
2018-03-28T19:40:22.591Z,29.75
2018-03-28T19:42:00.635Z,27.00
2018-03-28T19:43:37.980Z,21.75
2018-03-28T19:45:18.407Z,21.50
2018-03-28T19:46:57.001Z,28.50
2018-03-28T19:48:39.880Z,27.00
2018-03-28T19:50:24.179Z,21.00
2018-03-28T19:52:04.688Z,28.00
2018-03-28T19:53:51.429Z,28.00
2018-03-28T19:55:37.556Z,27.25
2018-03-28T19:57:17.816Z,25.50
2018-03-28T19:58:55.131Z,30.50
2018-03-28T20:00:41.560Z,28.25
2018-03-28T20:02:18.860Z,33.25
2018-03-28T20:03:56.983Z,33.50
2018-03-28T20:05:34.168Z,33.25
2018-03-28T20:07:11.959Z,30.00
2018-03-28T20:08:50.251Z,32.25
2018-03-28T20:10:29.567Z,32.00
2018-03-28T20:12:08.360Z,29.00
2018-03-28T20:13:45.585Z,25.75
2018-03-28T20:15:25.013Z,22.25
2018-03-28T20:17:05.287Z,31.25
2018-03-28T20:18:44.961Z,29.00
2018-03-28T20:20:23.082Z,25.75
2018-03-28T20:22:00.168Z,27.75
2018-03-28T20:23:38.102Z,31.50
2018-03-28T20:25:15.554Z,32.25
2018-03-28T20:26:54.528Z,29.50
2018-03-28T20:28:31.767Z,38.50
2018-03-28T20:30:09.138Z,26.25
2018-03-28T20:31:47.559Z,30.50
2018-03-28T20:33:24.663Z,27.00
2018-03-28T20:35:01.880Z,30.25
2018-03-28T20:36:40.131Z,21.50
2018-03-28T20:38:17.735Z,29.25
2018-03-28T20:39:55.019Z,25.75
2018-03-28T20:41:33.103Z,24.50
2018-03-28T20:43:10.235Z,34.50
2018-03-28T20:44:48.580Z,27.00
2018-03-28T20:46:30.197Z,32.25
2018-03-28T20:48:08.227Z,31.25
2018-03-28T20:49:48.650Z,29.25
2018-03-28T20:51:26.314Z,31.75
2018-03-28T20:53:04.757Z,30.50
2018-03-28T20:54:41.924Z,32.75
2018-03-28T20:56:20.126Z,37.25
2018-03-28T20:57:58.027Z,35.25
2018-03-28T20:59:38.649Z,26.75
2018-03-28T21:01:29.969Z,29.50
2018-03-28T21:03:07.477Z,26.50
2018-03-28T21:04:44.973Z,22.25
2018-03-28T21:06:25.490Z,23.50
2018-03-28T21:08:03.750Z,29.25
2018-03-28T21:09:43.297Z,26.75
2018-03-28T21:11:20.541Z,24.00
2018-03-28T21:12:58.554Z,27.00
2018-03-28T21:14:35.725Z,20.25
2018-03-28T21:16:13.297Z,23.00
2018-03-28T21:17:50.313Z,16.25
2018-03-28T21:19:27.301Z,18.75
2018-03-28T21:21:04.304Z,19.25
2018-03-28T21:22:41.528Z,18.75
2018-03-28T21:24:19.606Z,22.25